EW8780 Weather Reports


Display with metric or nautical units.
time (UTC)temp
F
wind
direction
speed
MPH
gust
MPH
rain 1hr
in
rain 24hr
in
rain mn
in
humidity
%
barometer
mb
20180920141559 51 24 2.0 3.0 0.00 0.00 0.00 91 1016.4
20180920140050 50 17 2.0 3.0 0.00 0.00 0.00 93 1016.4
20180920134537 50 17 1.0 4.0 0.00 0.01 0.00 94 1016.3
20180920133047 49 61 0.0 0.0 0.00 0.01 0.00 94 1016.2
20180920131552 49 61 0.0 0.0 0.00 0.01 0.00 93 1016.1
20180920130038 50 61 0.0 2.0 0.00 0.01 0.00 93 1016.0
20180920124525 50 75 1.0 3.0 0.00 0.01 0.00 92 1016.0
20180920123027 51 11 0.0 3.0 0.00 0.01 0.00 93 1016.0
20180920121532 51 11 1.0 3.0 0.00 0.01 0.00 93 1015.9
20180920120125 50 11 0.0 3.0 0.00 0.01 0.00 93 1015.9
20180920114650 50 11 2.0 4.0 0.00 0.01 0.00 94 1016.0
20180920113037 50 11 2.0 3.0 0.00 0.01 0.00 93 1016.1
20180920111518 50 11 2.0 3.0 0.00 0.01 0.00 93 1016.3
20180920110024 50 11 2.0 3.0 0.00 0.01 0.00 93 1016.2
20180920104516 50 11 2.0 3.0 0.00 0.01 0.00 93 1016.4
20180920103022 50 11 1.0 3.0 0.00 0.01 0.00 93 1016.3
20180920101532 50 11 2.0 3.0 0.00 0.01 0.00 92 1016.3
20180920100014 51 11 2.0 3.0 0.00 0.01 0.00 92 1016.2
20180920094512 51 11 1.0 3.0 0.00 0.01 0.00 92 1016.2
20180920093014 51 11 2.0 3.0 0.00 0.01 0.00 92 1016.3
20180920091524 51 11 1.0 3.0 0.00 0.01 0.00 92 1016.2
20180920090019 51 11 2.0 3.0 0.00 0.01 0.00 92 1016.2
20180920084507 51 11 2.0 3.0 0.00 0.01 0.00 92 1016.3
20180920083006 51 11 2.0 3.0 0.00 0.01 0.00 92 1016.2
20180920081519 51 11 2.0 3.0 0.00 0.01 0.00 91 1016.2
20180920080006 52 11 1.0 3.0 0.00 0.01 0.00 91 1016.4
20180920074626 52 11 2.0 3.0 0.00 0.01 0.00 91 1016.5
20180920073207 52 11 2.0 3.0 0.00 0.01 0.00 91 1016.5
20180920071646 52 11 2.0 3.0 0.00 0.01 0.00 91 1016.5
20180920070129 52 11 2.0 4.0 0.00 0.01 0.00 91 1016.5
20180920064613 52 11 1.0 3.0 0.00 0.01 0.00 90 1016.5
20180920063122 52 11 1.0 3.0 0.00 0.01 0.00 90 1016.4
20180920061600 53 11 1.0 3.0 0.00 0.01 0.00 89 1016.3
20180920060051 53 11 1.0 2.0 0.00 0.01 0.00 89 1016.2
20180920054552 53 11 2.0 3.0 0.00 0.01 0.00 89 1016.2
20180920053150 53 11 1.0 3.0 0.00 0.01 0.00 89 1016.3
20180920051728 53 11 1.0 3.0 0.00 0.01 0.00 89 1016.3
20180920050113 53 11 2.0 3.0 0.00 0.01 0.00 89 1016.3
20180920044602 54 11 1.0 2.0 0.00 0.01 0.00 89 1016.5
20180920043046 54 11 1.0 3.0 0.00 0.01 0.00 88 1016.4
20180920041558 54 11 1.0 3.0 0.00 0.01 0.00 87 1016.4
20180920040122 55 11 2.0 3.0 0.00 0.01 0.00 86 1016.4
20180920034556 55 11 1.0 3.0 0.00 0.01 0.00 85 1016.3
20180920033045 56 11 1.0 3.0 0.00 0.01 0.00 84 1016.2
20180920031605 57 5 2.0 4.0 0.00 0.01 0.00 82 1016.1
20180920030027 58 346 1.0 5.0 0.00 0.01 0.00 79 1016.0
20180920024552 59 339 2.0 6.0 0.00 0.01 0.00 77 1015.9
20180920023050 60 5 0.0 0.0 0.00 0.01 0.00 76 1015.7
20180920021541 61 22 0.0 0.0 0.00 0.01 0.00 73 1015.7
20180920020035 63 76 0.0 0.0 0.00 0.01 0.00 69 1015.5
20180920014512 65 130 0.0 0.0 0.00 0.01 0.00 65 1015.4
20180920013008 66 94 0.0 0.0 0.00 0.01 0.00 62 1015.3
20180920011501 67 128 0.0 0.0 0.00 0.01 0.00 59 1015.0
20180920010120 67 53 0.0 0.0 0.00 0.01 0.00 59 1014.9
20180920004628 67 62 0.0 0.0 0.00 0.01 0.00 57 1014.8
20180920003200 68 360 0.0 0.0 0.00 0.01 0.00 56 1014.8
20180920001603 68 360 0.0 0.0 0.00 0.01 0.00 55 1014.7
20180920000133 70 17 0.0 0.0 0.00 0.01 0.00 52 1014.7
20180919234645 72 15 0.0 0.0 0.00 0.01 0.00 47 1014.7
20180919233045 73 349 0.0 0.0 0.00 0.01 0.00 46 1014.8
20180919231542 73 21 0.0 0.0 0.00 0.01 0.00 44 1014.8
20180919230043 74 63 0.0 0.0 0.00 0.01 0.00 43 1014.8
20180919224606 74 44 0.0 0.0 0.00 0.01 0.00 41 1014.9
20180919220043 75 70 0.0 0.0 0.00 0.01 0.00 40 1015.2
20180919214534 75 99 0.0 0.0 0.00 0.01 0.00 41 1015.2
20180919213033 75 34 0.0 0.0 0.00 0.01 0.00 42 1015.2
20180919211537 75 49 0.0 0.0 0.00 0.01 0.00 42 1015.4
20180919210019 76 64 0.0 0.0 0.00 0.01 0.00 43 1015.5
20180919204537 75 92 0.0 0.0 0.00 0.01 0.00 42 1015.6
20180919203014 76 84 0.0 0.0 0.00 0.01 0.00 43 1015.7
20180919201512 75 236 0.0 0.0 0.00 0.01 0.00 44 1015.9
20180919200026 74 97 0.0 0.0 0.00 0.01 0.00 43 1016.1
20180919194503 75 24 0.0 0.0 0.00 0.01 0.00 41 1016.3
20180919191614 74 221 0.0 0.0 0.00 0.01 0.00 40 1016.6
20180919190106 73 205 0.0 0.0 0.00 0.01 0.00 46 1016.9
20180919184557 69 135 0.0 0.0 0.00 0.01 0.00 62 1017.2
20180919183113 67 216 0.0 0.0 0.00 0.01 0.00 67 1017.3
20180919181637 66 188 0.0 0.0 0.00 0.01 0.00 71 1017.5
20180919174546 62 198 0.0 0.0 0.00 0.01 0.01 78 1017.7
20180919173026 60 186 0.0 0.0 0.00 0.01 0.01 81 1017.8
20180919171519 59 230 0.0 0.0 0.00 0.01 0.01 85 1017.8
20180919170020 57 196 0.0 0.0 0.00 0.01 0.01 88 1017.7
20180919164523 56 166 0.0 0.0 0.00 0.01 0.01 90 1017.6
20180919163015 55 249 0.0 0.0 0.00 0.01 0.01 93 1017.6
20180919161506 53 30 0.0 0.0 0.00 0.01 0.01 96 1017.6
20180919160005 52 15 0.0 0.0 0.00 0.01 0.01 97 1017.7
20180919154605 50 15 0.0 0.0 0.00 0.01 0.01 97 1017.7
20180919153133 49 15 0.0 0.0 0.00 0.01 0.01 97 1017.6
20180919151559 48 15 0.0 0.0 0.00 0.01 0.01 96 1017.6
20180919150104 47 14 0.0 0.0 0.00 0.01 0.01 97 1017.7
20180919144628 47 15 0.0 0.0 0.00 0.01 0.01 97 1017.6
20180919143110 47 15 0.0 0.0 0.00 0.01 0.01 96 1017.5